createdAt,value
2022-10-22T00:01:03.310Z,28.38
2022-10-22T00:06:06.445Z,29.33
2022-10-22T00:11:16.900Z,32.78
2022-10-22T00:16:19.853Z,31.02
2022-10-22T00:21:22.671Z,31.35
2022-10-22T00:26:26.924Z,28.83
2022-10-22T00:31:30.533Z,26.92
2022-10-22T00:36:33.326Z,28.00
2022-10-22T00:41:37.760Z,28.80
2022-10-22T00:46:41.820Z,28.98
2022-10-22T00:51:44.645Z,29.13
2022-10-22T00:56:49.226Z,25.15
2022-10-22T01:01:53.268Z,28.05
2022-10-22T01:06:56.115Z,28.10
2022-10-22T01:12:07.969Z,28.83
2022-10-22T01:17:17.650Z,27.27
2022-10-22T01:22:26.278Z,28.30
2022-10-22T01:27:53.860Z,29.80
2022-10-22T01:33:02.684Z,31.35
2022-10-22T01:38:09.921Z,32.70
2022-10-22T01:43:13.125Z,31.70
2022-10-22T01:48:30.128Z,33.45
2022-10-22T01:53:41.921Z,32.35
2022-10-22T01:58:54.475Z,29.65
2022-10-22T02:04:07.343Z,33.72
2022-10-22T02:09:12.034Z,33.05
2022-10-22T02:14:17.133Z,33.25
2022-10-22T02:19:27.190Z,34.35
2022-10-22T02:24:30.581Z,33.17
2022-10-22T02:29:40.091Z,37.17
2022-10-22T02:34:45.376Z,38.13
2022-10-22T02:39:49.409Z,41.75
2022-10-22T02:44:52.197Z,37.15
2022-10-22T02:49:56.294Z,38.95
2022-10-22T02:54:59.133Z,42.92
2022-10-22T03:00:01.968Z,41.80
2022-10-22T03:05:07.029Z,39.72
2022-10-22T03:10:10.846Z,44.17
2022-10-22T03:15:13.692Z,42.45
2022-10-22T03:20:18.033Z,42.15
2022-10-22T03:25:23.692Z,38.15
2022-10-22T03:30:26.436Z,41.58
2022-10-22T03:35:31.757Z,42.63
2022-10-22T03:40:34.690Z,42.00
2022-10-22T03:50:42.695Z,43.42
2022-10-22T03:55:45.492Z,38.83
2022-10-22T04:00:48.349Z,42.17
2022-10-22T04:05:52.723Z,41.13
2022-10-22T04:10:55.450Z,38.97
2022-10-22T04:16:07.962Z,45.15
2022-10-22T04:21:14.186Z,47.75
2022-10-22T04:26:18.288Z,43.70
2022-10-22T04:31:23.131Z,50.80
2022-10-22T04:36:28.439Z,48.47
2022-10-22T04:41:33.222Z,47.10
2022-10-22T04:46:36.617Z,48.03
2022-10-22T04:51:40.986Z,54.20
2022-10-22T04:56:43.743Z,47.70
2022-10-22T05:01:46.528Z,41.35
2022-10-22T05:06:50.933Z,44.88
2022-10-22T05:11:54.592Z,45.13
2022-10-22T05:16:57.318Z,49.83
2022-10-22T05:22:03.632Z,47.83
2022-10-22T05:27:06.830Z,49.22
2022-10-22T05:32:10.686Z,56.97
2022-10-22T05:37:14.799Z,49.78
2022-10-22T05:42:17.520Z,50.72
2022-10-22T05:47:20.324Z,45.58
2022-10-22T05:52:24.563Z,42.35
2022-10-22T05:57:27.269Z,43.58
2022-10-22T06:02:30.163Z,46.78
2022-10-22T06:07:34.822Z,47.15
2022-10-22T06:12:37.647Z,49.78
2022-10-22T06:17:40.876Z,49.63
2022-10-22T06:22:44.945Z,53.40
2022-10-22T06:27:50.521Z,44.55
2022-10-22T06:32:53.218Z,48.85
2022-10-22T06:37:57.321Z,48.30
2022-10-22T06:43:02.828Z,44.97
2022-10-22T06:48:06.005Z,49.75
2022-10-22T06:53:10.149Z,54.70
2022-10-22T06:58:12.978Z,47.58
2022-10-22T07:03:16.490Z,39.88
2022-10-22T07:08:20.569Z,38.63
2022-10-22T07:13:23.621Z,39.55
2022-10-22T07:18:26.551Z,37.05
2022-10-22T07:23:30.718Z,36.15
2022-10-22T07:28:33.516Z,37.05
2022-10-22T07:33:37.283Z,34.92
2022-10-22T07:38:41.387Z,34.05
2022-10-22T07:43:45.002Z,34.10
2022-10-22T07:48:48.212Z,28.05
2022-10-22T07:53:52.346Z,32.80
2022-10-22T07:58:55.120Z,28.08
2022-10-22T08:03:57.993Z,25.73
2022-10-22T08:09:02.469Z,24.08
2022-10-22T08:14:05.399Z,23.15
2022-10-22T08:19:08.200Z,21.30
2022-10-22T08:24:13.210Z,17.83
2022-10-22T08:29:16.151Z,18.00
2022-10-22T08:34:19.070Z,18.02
2022-10-22T08:39:23.251Z,15.80
2022-10-22T08:44:47.899Z,15.00
2022-10-22T08:49:50.945Z,16.05
2022-10-22T08:54:58.255Z,11.30
2022-10-22T09:00:07.337Z,13.53
2022-10-22T09:05:29.406Z,17.13
2022-10-22T09:10:37.722Z,10.90
2022-10-22T09:15:43.730Z,12.48
2022-10-22T09:20:55.631Z,16.20
2022-10-22T09:31:03.649Z,11.57
2022-10-22T09:36:07.921Z,11.63
2022-10-22T09:41:12.044Z,11.00
2022-10-22T09:46:18.074Z,11.30
2022-10-22T09:51:23.513Z,11.80
2022-10-22T09:56:30.232Z,11.20
2022-10-22T10:01:35.657Z,11.38
2022-10-22T10:06:41.008Z,14.57
2022-10-22T10:11:50.414Z,8.85
2022-10-22T10:16:59.677Z,8.82
2022-10-22T10:22:11.809Z,10.30
2022-10-22T10:27:23.882Z,9.32
2022-10-22T10:32:45.852Z,7.47
2022-10-22T10:38:00.909Z,9.82
2022-10-22T10:43:12.248Z,8.25
2022-10-22T10:48:38.800Z,9.60
2022-10-22T10:54:16.363Z,8.50
2022-10-22T10:59:44.153Z,7.25
2022-10-22T11:05:14.070Z,7.97
2022-10-22T11:10:28.744Z,6.80
2022-10-22T11:15:36.047Z,6.50
2022-10-22T11:20:51.768Z,9.37
2022-10-22T11:25:54.643Z,8.80
2022-10-22T11:31:04.027Z,8.43
2022-10-22T11:36:08.602Z,7.38
2022-10-22T11:41:15.331Z,11.30
2022-10-22T11:46:31.279Z,6.28
2022-10-22T11:51:36.436Z,9.35
2022-10-22T11:56:40.328Z,7.13
2022-10-22T12:01:49.069Z,8.57
2022-10-22T12:07:00.761Z,5.30
2022-10-22T12:12:16.957Z,8.88
2022-10-22T12:17:23.777Z,6.95
2022-10-22T12:22:29.262Z,8.10
2022-10-22T12:27:37.332Z,7.35
2022-10-22T12:32:41.754Z,8.30
2022-10-22T12:37:45.050Z,8.20
2022-10-22T12:42:49.765Z,5.82
2022-10-22T12:47:59.251Z,8.55
2022-10-22T12:53:02.210Z,12.40
2022-10-22T12:58:07.393Z,7.95
2022-10-22T13:03:26.678Z,7.50
2022-10-22T13:08:47.489Z,7.30
2022-10-22T13:13:51.038Z,6.88
2022-10-22T13:18:55.984Z,9.02
2022-10-22T13:24:00.868Z,7.38
2022-10-22T13:29:10.509Z,10.30
2022-10-22T13:34:18.419Z,9.85
2022-10-22T13:39:23.073Z,6.45
2022-10-22T13:44:25.971Z,10.77
2022-10-22T13:49:30.176Z,9.25
2022-10-22T13:54:33.077Z,6.80
2022-10-22T13:59:35.868Z,8.80
2022-10-22T14:04:42.048Z,7.05
2022-10-22T14:09:45.239Z,7.90
2022-10-22T14:14:48.170Z,9.82
2022-10-22T14:19:52.906Z,9.20
2022-10-22T14:24:55.741Z,4.80
2022-10-22T14:29:59.634Z,7.57
2022-10-22T14:35:04.015Z,7.65
2022-10-22T14:40:08.451Z,6.88
2022-10-22T14:45:17.075Z,8.68
2022-10-22T14:50:21.595Z,9.43
2022-10-22T14:55:26.203Z,13.40
2022-10-22T15:00:29.028Z,12.18
2022-10-22T15:05:33.225Z,10.40
2022-10-22T15:10:38.263Z,11.85
2022-10-22T15:15:43.819Z,8.80
2022-10-22T15:20:56.419Z,7.03
2022-10-22T15:25:59.594Z,8.40
2022-10-22T15:31:02.567Z,11.70
2022-10-22T15:36:14.113Z,8.60
2022-10-22T15:41:16.927Z,7.57
2022-10-22T15:46:21.770Z,10.32
2022-10-22T15:51:26.136Z,7.07
2022-10-22T15:56:30.598Z,6.97
2022-10-22T16:01:36.892Z,8.40
2022-10-22T16:06:43.363Z,10.40
2022-10-22T16:11:46.746Z,8.75
2022-10-22T16:16:51.808Z,11.55
2022-10-22T16:21:59.377Z,12.95
2022-10-22T16:27:02.291Z,12.30
2022-10-22T16:32:08.089Z,8.93
2022-10-22T16:37:12.292Z,11.73
2022-10-22T16:42:22.402Z,24.05
2022-10-22T16:47:25.580Z,13.55
2022-10-22T16:52:34.742Z,18.80
2022-10-22T16:58:02.067Z,13.55
2022-10-22T17:03:08.563Z,15.70
2022-10-22T17:08:19.966Z,11.27
2022-10-22T17:13:27.446Z,11.90
2022-10-22T17:23:55.339Z,10.55
2022-10-22T17:29:01.496Z,14.50
2022-10-22T17:34:09.284Z,11.52
2022-10-22T17:39:18.978Z,12.82
2022-10-22T17:44:22.141Z,12.63
2022-10-22T17:49:25.009Z,13.82
2022-10-22T17:54:29.544Z,16.60
2022-10-22T17:59:33.242Z,14.23
2022-10-22T18:04:36.943Z,17.17
2022-10-22T18:09:42.864Z,15.55
2022-10-22T18:14:47.438Z,16.02
2022-10-22T18:19:50.508Z,15.68
2022-10-22T18:24:55.374Z,15.25
2022-10-22T18:29:58.228Z,14.65
2022-10-22T18:35:01.324Z,12.13
2022-10-22T18:40:08.764Z,16.73
2022-10-22T18:45:17.696Z,14.93
2022-10-22T18:50:20.726Z,10.40
2022-10-22T18:55:25.000Z,15.88
2022-10-22T19:00:32.486Z,14.63
2022-10-22T19:05:35.950Z,13.53
2022-10-22T19:10:40.400Z,14.85
2022-10-22T19:15:43.293Z,24.35
2022-10-22T19:20:48.471Z,11.18
2022-10-22T19:26:02.521Z,18.50
2022-10-22T19:31:06.449Z,15.30
2022-10-22T19:36:11.898Z,19.10
2022-10-22T19:41:21.231Z,15.77
2022-10-22T19:46:25.697Z,15.48
2022-10-22T19:51:30.778Z,16.15
2022-10-22T19:56:37.679Z,19.95
2022-10-22T20:01:40.546Z,20.10
2022-10-22T20:06:46.637Z,16.55
2022-10-22T20:11:50.975Z,17.00
2022-10-22T20:17:01.246Z,18.15
2022-10-22T20:22:28.829Z,20.55
2022-10-22T20:28:23.827Z,18.10
2022-10-22T20:33:29.438Z,16.95
2022-10-22T20:38:32.387Z,16.25
2022-10-22T20:43:35.711Z,19.65
2022-10-22T20:48:40.938Z,15.35
2022-10-22T20:53:43.818Z,18.02
2022-10-22T20:58:48.590Z,16.27
2022-10-22T21:03:53.959Z,17.48
2022-10-22T21:08:56.955Z,19.02
2022-10-22T21:14:03.681Z,19.95
2022-10-22T21:19:07.813Z,24.45
2022-10-22T21:24:11.169Z,18.73
2022-10-22T21:29:14.483Z,22.48
2022-10-22T21:34:18.729Z,26.38
2022-10-22T21:39:21.617Z,18.83
2022-10-22T21:44:24.416Z,23.02
2022-10-22T21:49:28.507Z,24.42
2022-10-22T21:54:31.384Z,22.77
2022-10-22T21:59:37.629Z,24.30
2022-10-22T22:04:42.628Z,24.73
2022-10-22T22:09:45.430Z,22.40
2022-10-22T22:14:50.707Z,24.00
2022-10-22T22:19:55.016Z,26.35
2022-10-22T22:24:57.809Z,23.38
2022-10-22T22:30:03.141Z,28.90
2022-10-22T22:35:07.976Z,24.20
2022-10-22T22:40:13.958Z,26.50
2022-10-22T22:45:16.980Z,28.55
2022-10-22T22:50:21.203Z,30.75
2022-10-22T22:55:24.107Z,29.65
2022-10-22T23:00:27.058Z,27.05
2022-10-22T23:05:31.224Z,31.38
2022-10-22T23:10:33.978Z,31.02
2022-10-22T23:15:40.318Z,29.05
2022-10-22T23:20:44.401Z,26.77
2022-10-22T23:25:47.231Z,35.35
2022-10-22T23:30:52.933Z,28.58
2022-10-22T23:35:57.211Z,31.13
2022-10-22T23:41:00.257Z,34.90
2022-10-22T23:46:03.059Z,28.52
2022-10-22T23:51:08.678Z,34.97
2022-10-22T23:56:13.945Z,28.67
